sensor_id;sensor_type;location;lat;lon;timestamp;P1;durP1;ratioP1;P2;durP2;ratioP2
57395;SDS011;43222;52.912;6.940;2022-07-21T00:00:58;14.48;;;6.30;;
57395;SDS011;43222;52.912;6.940;2022-07-21T00:03:24;11.32;;;7.22;;
57395;SDS011;43222;52.912;6.940;2022-07-21T00:05:53;11.65;;;6.30;;
57395;SDS011;43222;52.912;6.940;2022-07-21T00:08:19;10.68;;;6.13;;
57395;SDS011;43222;52.912;6.940;2022-07-21T00:10:45;10.00;;;6.07;;
57395;SDS011;43222;52.912;6.940;2022-07-21T00:13:11;10.93;;;6.05;;
57395;SDS011;43222;52.912;6.940;2022-07-21T00:15:38;10.13;;;6.65;;
57395;SDS011;43222;52.912;6.940;2022-07-21T00:18:04;11.73;;;6.13;;
57395;SDS011;43222;52.912;6.940;2022-07-21T00:20:30;9.60;;;6.45;;
57395;SDS011;43222;52.912;6.940;2022-07-21T00:22:56;13.73;;;7.03;;
57395;SDS011;43222;52.912;6.940;2022-07-21T00:25:22;16.30;;;7.57;;
57395;SDS011;43222;52.912;6.940;2022-07-21T00:27:48;17.63;;;9.05;;
57395;SDS011;43222;52.912;6.940;2022-07-21T00:30:15;15.65;;;7.88;;
57395;SDS011;43222;52.912;6.940;2022-07-21T00:32:41;16.98;;;7.50;;
57395;SDS011;43222;52.912;6.940;2022-07-21T00:35:08;12.43;;;7.55;;
57395;SDS011;43222;52.912;6.940;2022-07-21T00:37:34;13.88;;;7.40;;
57395;SDS011;43222;52.912;6.940;2022-07-21T00:40:00;14.30;;;7.18;;
57395;SDS011;43222;52.912;6.940;2022-07-21T00:42:27;22.88;;;7.90;;
57395;SDS011;43222;52.912;6.940;2022-07-21T00:44:54;16.10;;;8.23;;
57395;SDS011;43222;52.912;6.940;2022-07-21T00:47:20;18.55;;;9.02;;
57395;SDS011;43222;52.912;6.940;2022-07-21T00:49:47;15.82;;;8.23;;
57395;SDS011;43222;52.912;6.940;2022-07-21T00:52:13;14.63;;;8.18;;
57395;SDS011;43222;52.912;6.940;2022-07-21T00:54:42;15.65;;;8.55;;
57395;SDS011;43222;52.912;6.940;2022-07-21T00:57:09;12.55;;;9.10;;
57395;SDS011;43222;52.912;6.940;2022-07-21T00:59:35;13.10;;;8.68;;
57395;SDS011;43222;52.912;6.940;2022-07-21T01:02:01;15.45;;;8.75;;
57395;SDS011;43222;52.912;6.940;2022-07-21T01:04:28;14.48;;;8.20;;
57395;SDS011;43222;52.912;6.940;2022-07-21T01:06:54;13.45;;;8.85;;
57395;SDS011;43222;52.912;6.940;2022-07-21T01:09:20;17.13;;;8.77;;
57395;SDS011;43222;52.912;6.940;2022-07-21T01:11:47;14.43;;;9.23;;
57395;SDS011;43222;52.912;6.940;2022-07-21T01:14:13;14.60;;;9.57;;
57395;SDS011;43222;52.912;6.940;2022-07-21T01:16:42;15.75;;;8.35;;
57395;SDS011;43222;52.912;6.940;2022-07-21T01:19:09;17.33;;;9.70;;
57395;SDS011;43222;52.912;6.940;2022-07-21T01:21:36;14.75;;;9.07;;
57395;SDS011;43222;52.912;6.940;2022-07-21T01:24:03;14.10;;;8.85;;
57395;SDS011;43222;52.912;6.940;2022-07-21T01:26:29;21.45;;;10.00;;
57395;SDS011;43222;52.912;6.940;2022-07-21T01:28:56;16.48;;;10.27;;
57395;SDS011;43222;52.912;6.940;2022-07-21T01:31:22;16.10;;;10.15;;
57395;SDS011;43222;52.912;6.940;2022-07-21T01:33:48;13.20;;;9.18;;
57395;SDS011;43222;52.912;6.940;2022-07-21T01:36:14;18.85;;;10.68;;
57395;SDS011;43222;52.912;6.940;2022-07-21T01:38:41;14.60;;;9.95;;
57395;SDS011;43222;52.912;6.940;2022-07-21T01:41:25;16.50;;;10.23;;
57395;SDS011;43222;52.912;6.940;2022-07-21T01:43:57;20.38;;;10.55;;
57395;SDS011;43222;52.912;6.940;2022-07-21T01:46:24;20.25;;;10.35;;
57395;SDS011;43222;52.912;6.940;2022-07-21T01:48:50;17.95;;;10.07;;
57395;SDS011;43222;52.912;6.940;2022-07-21T01:51:19;16.00;;;10.35;;
57395;SDS011;43222;52.912;6.940;2022-07-21T01:53:45;16.23;;;10.25;;
57395;SDS011;43222;52.912;6.940;2022-07-21T01:56:11;16.92;;;10.13;;
57395;SDS011;43222;52.912;6.940;2022-07-21T01:58:37;16.17;;;10.43;;
57395;SDS011;43222;52.912;6.940;2022-07-21T02:01:03;13.88;;;9.65;;
57395;SDS011;43222;52.912;6.940;2022-07-21T02:03:29;16.92;;;10.43;;
57395;SDS011;43222;52.912;6.940;2022-07-21T02:06:04;17.45;;;10.82;;
57395;SDS011;43222;52.912;6.940;2022-07-21T02:08:31;18.55;;;11.13;;
57395;SDS011;43222;52.912;6.940;2022-07-21T02:11:00;17.88;;;11.15;;
57395;SDS011;43222;52.912;6.940;2022-07-21T02:13:26;15.95;;;10.95;;
57395;SDS011;43222;52.912;6.940;2022-07-21T02:15:53;15.80;;;11.48;;
57395;SDS011;43222;52.912;6.940;2022-07-21T02:18:19;15.48;;;10.77;;
57395;SDS011;43222;52.912;6.940;2022-07-21T02:20:45;17.30;;;11.88;;
57395;SDS011;43222;52.912;6.940;2022-07-21T02:23:12;16.88;;;11.68;;
57395;SDS011;43222;52.912;6.940;2022-07-21T02:25:38;15.80;;;11.45;;
57395;SDS011;43222;52.912;6.940;2022-07-21T02:28:05;15.38;;;11.43;;
57395;SDS011;43222;52.912;6.940;2022-07-21T02:30:31;15.70;;;11.55;;
57395;SDS011;43222;52.912;6.940;2022-07-21T02:32:57;18.25;;;11.35;;
57395;SDS011;43222;52.912;6.940;2022-07-21T02:35:23;17.63;;;11.98;;
57395;SDS011;43222;52.912;6.940;2022-07-21T02:37:49;18.33;;;11.77;;
57395;SDS011;43222;52.912;6.940;2022-07-21T02:40:15;17.42;;;11.70;;
57395;SDS011;43222;52.912;6.940;2022-07-21T02:42:41;16.92;;;12.30;;
57395;SDS011;43222;52.912;6.940;2022-07-21T02:45:07;18.55;;;12.05;;
57395;SDS011;43222;52.912;6.940;2022-07-21T02:47:46;15.73;;;11.73;;
57395;SDS011;43222;52.912;6.940;2022-07-21T02:50:13;21.48;;;12.27;;
57395;SDS011;43222;52.912;6.940;2022-07-21T02:52:39;16.63;;;11.90;;
57395;SDS011;43222;52.912;6.940;2022-07-21T02:55:05;17.02;;;12.32;;
57395;SDS011;43222;52.912;6.940;2022-07-21T02:57:31;16.98;;;13.00;;
57395;SDS011;43222;52.912;6.940;2022-07-21T02:59:57;15.27;;;12.27;;
57395;SDS011;43222;52.912;6.940;2022-07-21T03:02:23;16.65;;;12.82;;
57395;SDS011;43222;52.912;6.940;2022-07-21T03:04:49;15.50;;;12.45;;
57395;SDS011;43222;52.912;6.940;2022-07-21T03:07:15;18.73;;;13.15;;
57395;SDS011;43222;52.912;6.940;2022-07-21T03:09:43;18.58;;;13.95;;
57395;SDS011;43222;52.912;6.940;2022-07-21T03:12:10;19.00;;;13.60;;
57395;SDS011;43222;52.912;6.940;2022-07-21T03:14:37;17.17;;;12.82;;
57395;SDS011;43222;52.912;6.940;2022-07-21T03:17:03;18.40;;;13.70;;
57395;SDS011;43222;52.912;6.940;2022-07-21T03:19:29;19.90;;;13.50;;
57395;SDS011;43222;52.912;6.940;2022-07-21T03:21:55;16.27;;;13.73;;
57395;SDS011;43222;52.912;6.940;2022-07-21T03:24:21;19.40;;;13.48;;
57395;SDS011;43222;52.912;6.940;2022-07-21T03:26:47;19.05;;;13.55;;
57395;SDS011;43222;52.912;6.940;2022-07-21T03:29:13;21.52;;;14.18;;
57395;SDS011;43222;52.912;6.940;2022-07-21T03:31:39;21.23;;;14.68;;
57395;SDS011;43222;52.912;6.940;2022-07-21T03:34:06;20.40;;;14.10;;
57395;SDS011;43222;52.912;6.940;2022-07-21T03:36:32;17.20;;;13.98;;
57395;SDS011;43222;52.912;6.940;2022-07-21T03:38:57;18.92;;;14.27;;
57395;SDS011;43222;52.912;6.940;2022-07-21T03:41:24;19.13;;;13.70;;
57395;SDS011;43222;52.912;6.940;2022-07-21T03:43:50;24.73;;;14.30;;
57395;SDS011;43222;52.912;6.940;2022-07-21T03:46:18;21.45;;;13.80;;
57395;SDS011;43222;52.912;6.940;2022-07-21T03:48:44;19.02;;;13.65;;
57395;SDS011;43222;52.912;6.940;2022-07-21T03:51:10;21.05;;;14.05;;
57395;SDS011;43222;52.912;6.940;2022-07-21T03:53:36;19.30;;;13.70;;
57395;SDS011;43222;52.912;6.940;2022-07-21T03:56:03;20.65;;;14.25;;
57395;SDS011;43222;52.912;6.940;2022-07-21T03:58:29;19.00;;;13.48;;
57395;SDS011;43222;52.912;6.940;2022-07-21T04:00:55;20.35;;;13.98;;
57395;SDS011;43222;52.912;6.940;2022-07-21T04:03:21;19.60;;;13.57;;
57395;SDS011;43222;52.912;6.940;2022-07-21T04:05:47;17.25;;;13.10;;
57395;SDS011;43222;52.912;6.940;2022-07-21T04:08:13;20.52;;;13.85;;
57395;SDS011;43222;52.912;6.940;2022-07-21T04:10:39;21.83;;;15.05;;
57395;SDS011;43222;52.912;6.940;2022-07-21T04:13:07;19.10;;;15.60;;
57395;SDS011;43222;52.912;6.940;2022-07-21T04:15:34;20.98;;;15.60;;
57395;SDS011;43222;52.912;6.940;2022-07-21T04:18:00;21.75;;;16.17;;
57395;SDS011;43222;52.912;6.940;2022-07-21T04:20:27;20.80;;;15.20;;
57395;SDS011;43222;52.912;6.940;2022-07-21T04:22:53;19.08;;;16.33;;
57395;SDS011;43222;52.912;6.940;2022-07-21T04:25:19;21.17;;;16.98;;
57395;SDS011;43222;52.912;6.940;2022-07-21T04:27:46;21.67;;;16.20;;
57395;SDS011;43222;52.912;6.940;2022-07-21T04:30:13;18.92;;;15.82;;
57395;SDS011;43222;52.912;6.940;2022-07-21T04:32:39;23.33;;;16.70;;
57395;SDS011;43222;52.912;6.940;2022-07-21T04:35:06;23.98;;;18.20;;
57395;SDS011;43222;52.912;6.940;2022-07-21T04:37:32;25.35;;;19.23;;
57395;SDS011;43222;52.912;6.940;2022-07-21T04:39:58;22.17;;;18.77;;
57395;SDS011;43222;52.912;6.940;2022-07-21T04:42:24;21.85;;;18.52;;
57395;SDS011;43222;52.912;6.940;2022-07-21T04:44:50;24.05;;;19.27;;
57395;SDS011;43222;52.912;6.940;2022-07-21T04:47:21;24.40;;;20.13;;
57395;SDS011;43222;52.912;6.940;2022-07-21T04:49:47;24.42;;;20.33;;
57395;SDS011;43222;52.912;6.940;2022-07-21T04:52:13;25.95;;;21.73;;
57395;SDS011;43222;52.912;6.940;2022-07-21T04:54:39;24.42;;;20.13;;
57395;SDS011;43222;52.912;6.940;2022-07-21T04:57:05;24.27;;;21.70;;
57395;SDS011;43222;52.912;6.940;2022-07-21T04:59:32;25.98;;;23.17;;
57395;SDS011;43222;52.912;6.940;2022-07-21T05:01:58;25.25;;;22.45;;
57395;SDS011;43222;52.912;6.940;2022-07-21T05:04:24;21.27;;;19.15;;
57395;SDS011;43222;52.912;6.940;2022-07-21T05:06:51;24.40;;;21.90;;
57395;SDS011;43222;52.912;6.940;2022-07-21T05:09:17;23.48;;;21.05;;
57395;SDS011;43222;52.912;6.940;2022-07-21T05:11:43;21.73;;;19.48;;
57395;SDS011;43222;52.912;6.940;2022-07-21T05:14:09;20.83;;;18.58;;
57395;SDS011;43222;52.912;6.940;2022-07-21T05:16:35;18.75;;;16.80;;
57395;SDS011;43222;52.912;6.940;2022-07-21T05:19:01;19.20;;;16.58;;
57395;SDS011;43222;52.912;6.940;2022-07-21T05:21:27;18.75;;;16.40;;
57395;SDS011;43222;52.912;6.940;2022-07-21T05:23:53;19.08;;;17.00;;
57395;SDS011;43222;52.912;6.940;2022-07-21T05:26:19;19.85;;;17.83;;
57395;SDS011;43222;52.912;6.940;2022-07-21T05:28:45;20.27;;;17.63;;
57395;SDS011;43222;52.912;6.940;2022-07-21T05:31:11;22.48;;;18.67;;
57395;SDS011;43222;52.912;6.940;2022-07-21T05:33:37;22.25;;;19.85;;
57395;SDS011;43222;52.912;6.940;2022-07-21T05:36:04;21.02;;;18.63;;
57395;SDS011;43222;52.912;6.940;2022-07-21T05:38:30;21.25;;;19.08;;
57395;SDS011;43222;52.912;6.940;2022-07-21T05:40:56;23.58;;;20.77;;
57395;SDS011;43222;52.912;6.940;2022-07-21T05:43:25;23.02;;;19.45;;
57395;SDS011;43222;52.912;6.940;2022-07-21T05:45:51;22.48;;;20.17;;
57395;SDS011;43222;52.912;6.940;2022-07-21T05:48:17;20.40;;;18.17;;
57395;SDS011;43222;52.912;6.940;2022-07-21T05:50:43;25.73;;;21.95;;
57395;SDS011;43222;52.912;6.940;2022-07-21T05:53:09;24.83;;;22.38;;
57395;SDS011;43222;52.912;6.940;2022-07-21T05:55:35;23.90;;;21.30;;
57395;SDS011;43222;52.912;6.940;2022-07-21T05:58:01;24.35;;;21.85;;
57395;SDS011;43222;52.912;6.940;2022-07-21T06:00:27;23.90;;;21.50;;
57395;SDS011;43222;52.912;6.940;2022-07-21T06:02:53;24.15;;;21.58;;
57395;SDS011;43222;52.912;6.940;2022-07-21T06:05:20;23.10;;;20.52;;
57395;SDS011;43222;52.912;6.940;2022-07-21T06:07:46;25.27;;;22.77;;
57395;SDS011;43222;52.912;6.940;2022-07-21T06:10:13;22.17;;;20.02;;
57395;SDS011;43222;52.912;6.940;2022-07-21T06:12:39;25.08;;;22.60;;
57395;SDS011;43222;52.912;6.940;2022-07-21T06:15:06;24.38;;;21.80;;
57395;SDS011;43222;52.912;6.940;2022-07-21T06:17:38;24.48;;;22.02;;
57395;SDS011;43222;52.912;6.940;2022-07-21T06:20:05;27.48;;;24.65;;
57395;SDS011;43222;52.912;6.940;2022-07-21T06:22:31;26.73;;;24.05;;
57395;SDS011;43222;52.912;6.940;2022-07-21T06:24:57;26.92;;;23.35;;
57395;SDS011;43222;52.912;6.940;2022-07-21T06:27:23;24.98;;;22.58;;
57395;SDS011;43222;52.912;6.940;2022-07-21T06:29:49;24.70;;;22.10;;
57395;SDS011;43222;52.912;6.940;2022-07-21T06:32:15;23.00;;;20.70;;
57395;SDS011;43222;52.912;6.940;2022-07-21T06:34:41;22.38;;;19.83;;
57395;SDS011;43222;52.912;6.940;2022-07-21T06:37:07;22.63;;;20.50;;
57395;SDS011;43222;52.912;6.940;2022-07-21T06:39:33;23.05;;;20.85;;
57395;SDS011;43222;52.912;6.940;2022-07-21T06:42:04;21.25;;;18.92;;
57395;SDS011;43222;52.912;6.940;2022-07-21T06:44:30;24.00;;;21.70;;
57395;SDS011;43222;52.912;6.940;2022-07-21T06:46:56;21.42;;;19.25;;
57395;SDS011;43222;52.912;6.940;2022-07-21T06:49:22;21.40;;;19.13;;
57395;SDS011;43222;52.912;6.940;2022-07-21T06:51:48;23.08;;;19.77;;
57395;SDS011;43222;52.912;6.940;2022-07-21T06:54:14;20.35;;;18.27;;
57395;SDS011;43222;52.912;6.940;2022-07-21T06:56:40;22.42;;;20.20;;
57395;SDS011;43222;52.912;6.940;2022-07-21T06:59:06;22.58;;;20.38;;
57395;SDS011;43222;52.912;6.940;2022-07-21T07:01:32;22.50;;;20.20;;
57395;SDS011;43222;52.912;6.940;2022-07-21T07:04:01;22.20;;;19.90;;
57395;SDS011;43222;52.912;6.940;2022-07-21T07:06:27;24.30;;;21.80;;
57395;SDS011;43222;52.912;6.940;2022-07-21T07:08:53;23.48;;;21.17;;
57395;SDS011;43222;52.912;6.940;2022-07-21T07:11:19;24.08;;;21.58;;
57395;SDS011;43222;52.912;6.940;2022-07-21T07:13:45;24.35;;;21.90;;
57395;SDS011;43222;52.912;6.940;2022-07-21T07:16:11;25.05;;;22.48;;
57395;SDS011;43222;52.912;6.940;2022-07-21T07:18:37;24.88;;;22.48;;
57395;SDS011;43222;52.912;6.940;2022-07-21T07:21:03;24.40;;;21.83;;
57395;SDS011;43222;52.912;6.940;2022-07-21T07:23:29;24.13;;;21.75;;
57395;SDS011;43222;52.912;6.940;2022-07-21T07:25:55;24.55;;;22.13;;
57395;SDS011;43222;52.912;6.940;2022-07-21T07:28:21;24.25;;;21.95;;
57395;SDS011;43222;52.912;6.940;2022-07-21T07:30:47;24.27;;;21.98;;
57395;SDS011;43222;52.912;6.940;2022-07-21T07:33:14;23.63;;;21.30;;
57395;SDS011;43222;52.912;6.940;2022-07-21T07:35:40;25.90;;;23.45;;
57395;SDS011;43222;52.912;6.940;2022-07-21T07:38:06;26.50;;;23.77;;
57395;SDS011;43222;52.912;6.940;2022-07-21T07:40:32;25.73;;;23.13;;
57395;SDS011;43222;52.912;6.940;2022-07-21T07:43:01;26.50;;;23.92;;
57395;SDS011;43222;52.912;6.940;2022-07-21T07:45:27;26.63;;;24.02;;
57395;SDS011;43222;52.912;6.940;2022-07-21T07:47:53;22.63;;;20.33;;
57395;SDS011;43222;52.912;6.940;2022-07-21T07:50:19;26.13;;;23.58;;
57395;SDS011;43222;52.912;6.940;2022-07-21T07:52:45;23.13;;;20.83;;
57395;SDS011;43222;52.912;6.940;2022-07-21T07:55:12;22.25;;;20.15;;
57395;SDS011;43222;52.912;6.940;2022-07-21T07:57:39;20.27;;;18.25;;
57395;SDS011;43222;52.912;6.940;2022-07-21T08:00:07;22.88;;;20.50;;
57395;SDS011;43222;52.912;6.940;2022-07-21T08:02:34;22.25;;;20.05;;
57395;SDS011;43222;52.912;6.940;2022-07-21T08:05:00;19.30;;;16.63;;
57395;SDS011;43222;52.912;6.940;2022-07-21T08:07:26;19.75;;;17.83;;
57395;SDS011;43222;52.912;6.940;2022-07-21T08:09:52;18.83;;;16.95;;
57395;SDS011;43222;52.912;6.940;2022-07-21T08:12:21;20.27;;;17.95;;
57395;SDS011;43222;52.912;6.940;2022-07-21T08:14:47;19.73;;;17.83;;
57395;SDS011;43222;52.912;6.940;2022-07-21T08:17:13;21.50;;;19.33;;
57395;SDS011;43222;52.912;6.940;2022-07-21T08:19:44;20.33;;;18.42;;
57395;SDS011;43222;52.912;6.940;2022-07-21T08:22:12;20.88;;;18.75;;
57395;SDS011;43222;52.912;6.940;2022-07-21T08:24:41;22.48;;;20.13;;
57395;SDS011;43222;52.912;6.940;2022-07-21T08:27:16;24.20;;;21.92;;
57395;SDS011;43222;52.912;6.940;2022-07-21T08:29:43;20.63;;;18.48;;
57395;SDS011;43222;52.912;6.940;2022-07-21T08:32:14;23.77;;;21.38;;
57395;SDS011;43222;52.912;6.940;2022-07-21T08:34:51;21.95;;;19.85;;
57395;SDS011;43222;52.912;6.940;2022-07-21T08:37:20;23.05;;;20.75;;
57395;SDS011;43222;52.912;6.940;2022-07-21T08:39:46;20.52;;;18.67;;
57395;SDS011;43222;52.912;6.940;2022-07-21T08:42:29;21.77;;;19.67;;
57395;SDS011;43222;52.912;6.940;2022-07-21T08:45:19;22.80;;;20.63;;
57395;SDS011;43222;52.912;6.940;2022-07-21T08:48:04;23.20;;;21.05;;
57395;SDS011;43222;52.912;6.940;2022-07-21T08:50:34;21.00;;;19.00;;
57395;SDS011;43222;52.912;6.940;2022-07-21T08:53:20;19.63;;;17.70;;
57395;SDS011;43222;52.912;6.940;2022-07-21T08:55:51;20.02;;;18.10;;
57395;SDS011;43222;52.912;6.940;2022-07-21T08:58:26;20.75;;;18.65;;
57395;SDS011;43222;52.912;6.940;2022-07-21T09:01:13;21.70;;;19.67;;
57395;SDS011;43222;52.912;6.940;2022-07-21T09:03:44;20.98;;;19.10;;
57395;SDS011;43222;52.912;6.940;2022-07-21T09:06:14;21.45;;;19.55;;
57395;SDS011;43222;52.912;6.940;2022-07-21T09:08:45;20.85;;;18.80;;
57395;SDS011;43222;52.912;6.940;2022-07-21T09:11:25;20.65;;;18.70;;
57395;SDS011;43222;52.912;6.940;2022-07-21T09:14:07;22.45;;;19.63;;
57395;SDS011;43222;52.912;6.940;2022-07-21T09:16:39;20.88;;;18.88;;
57395;SDS011;43222;52.912;6.940;2022-07-21T09:19:06;23.37;;;20.93;;
57395;SDS011;43222;52.912;6.940;2022-07-21T09:21:41;23.70;;;21.48;;
57395;SDS011;43222;52.912;6.940;2022-07-21T09:24:31;23.38;;;21.25;;
57395;SDS011;43222;52.912;6.940;2022-07-21T09:29:34;22.23;;;20.05;;
57395;SDS011;43222;52.912;6.940;2022-07-21T09:32:11;22.55;;;20.33;;
57395;SDS011;43222;52.912;6.940;2022-07-21T09:34:40;22.30;;;20.10;;
57395;SDS011;43222;52.912;6.940;2022-07-21T09:37:07;19.75;;;17.83;;
57395;SDS011;43222;52.912;6.940;2022-07-21T09:39:54;22.30;;;20.00;;
57395;SDS011;43222;52.912;6.940;2022-07-21T09:44:47;19.15;;;17.25;;
57395;SDS011;43222;52.912;6.940;2022-07-21T09:47:14;18.20;;;16.50;;
57395;SDS011;43222;52.912;6.940;2022-07-21T09:49:40;20.27;;;18.27;;
57395;SDS011;43222;52.912;6.940;2022-07-21T09:52:20;19.55;;;17.65;;
57395;SDS011;43222;52.912;6.940;2022-07-21T09:54:46;20.42;;;18.30;;
57395;SDS011;43222;52.912;6.940;2022-07-21T09:57:13;20.17;;;17.65;;
57395;SDS011;43222;52.912;6.940;2022-07-21T09:59:39;20.15;;;17.95;;
57395;SDS011;43222;52.912;6.940;2022-07-21T10:02:08;19.13;;;17.13;;
57395;SDS011;43222;52.912;6.940;2022-07-21T10:04:36;18.95;;;17.05;;
57395;SDS011;43222;52.912;6.940;2022-07-21T10:07:03;17.90;;;16.05;;
57395;SDS011;43222;52.912;6.940;2022-07-21T10:09:29;21.83;;;16.83;;
57395;SDS011;43222;52.912;6.940;2022-07-21T10:11:55;21.77;;;17.48;;
57395;SDS011;43222;52.912;6.940;2022-07-21T10:14:22;18.92;;;17.02;;
57395;SDS011;43222;52.912;6.940;2022-07-21T10:16:48;18.95;;;16.92;;
57395;SDS011;43222;52.912;6.940;2022-07-21T10:19:21;19.80;;;17.58;;
57395;SDS011;43222;52.912;6.940;2022-07-21T10:21:51;19.90;;;17.85;;
57395;SDS011;43222;52.912;6.940;2022-07-21T10:24:21;20.80;;;18.65;;
57395;SDS011;43222;52.912;6.940;2022-07-21T10:32:10;20.63;;;18.08;;
57395;SDS011;43222;52.912;6.940;2022-07-21T10:34:36;20.13;;;18.13;;
57395;SDS011;43222;52.912;6.940;2022-07-21T10:37:03;21.80;;;19.50;;
57395;SDS011;43222;52.912;6.940;2022-07-21T10:39:30;24.08;;;21.73;;
57395;SDS011;43222;52.912;6.940;2022-07-21T10:41:58;24.90;;;22.20;;
57395;SDS011;43222;52.912;6.940;2022-07-21T10:47:11;24.10;;;21.73;;
57395;SDS011;43222;52.912;6.940;2022-07-21T10:49:50;24.73;;;22.13;;
57395;SDS011;43222;52.912;6.940;2022-07-21T10:55:14;25.10;;;22.10;;
57395;SDS011;43222;52.912;6.940;2022-07-21T10:57:43;24.00;;;21.58;;
57395;SDS011;43222;52.912;6.940;2022-07-21T11:00:32;22.95;;;20.60;;
57395;SDS011;43222;52.912;6.940;2022-07-21T11:03:02;24.88;;;22.38;;
57395;SDS011;43222;52.912;6.940;2022-07-21T11:05:29;22.73;;;20.33;;
57395;SDS011;43222;52.912;6.940;2022-07-21T11:08:09;26.23;;;23.60;;
57395;SDS011;43222;52.912;6.940;2022-07-21T11:10:40;24.73;;;22.23;;
57395;SDS011;43222;52.912;6.940;2022-07-21T11:15:42;27.65;;;24.85;;
57395;SDS011;43222;52.912;6.940;2022-07-21T11:18:09;27.80;;;25.00;;
57395;SDS011;43222;52.912;6.940;2022-07-21T11:20:36;27.88;;;25.08;;
57395;SDS011;43222;52.912;6.940;2022-07-21T11:23:02;29.20;;;26.30;;
57395;SDS011;43222;52.912;6.940;2022-07-21T11:25:29;28.50;;;25.65;;
57395;SDS011;43222;52.912;6.940;2022-07-21T11:27:55;28.83;;;25.88;;
57395;SDS011;43222;52.912;6.940;2022-07-21T11:30:22;78.18;;;27.27;;
57395;SDS011;43222;52.912;6.940;2022-07-21T11:32:48;63.97;;;28.15;;
57395;SDS011;43222;52.912;6.940;2022-07-21T11:35:14;37.13;;;26.42;;
57395;SDS011;43222;52.912;6.940;2022-07-21T11:37:41;27.13;;;24.23;;
57395;SDS011;43222;52.912;6.940;2022-07-21T11:40:14;25.15;;;22.55;;
57395;SDS011;43222;52.912;6.940;2022-07-21T11:42:42;28.25;;;23.90;;
57395;SDS011;43222;52.912;6.940;2022-07-21T11:45:09;28.15;;;22.35;;
57395;SDS011;43222;52.912;6.940;2022-07-21T11:47:36;25.58;;;22.92;;
57395;SDS011;43222;52.912;6.940;2022-07-21T11:50:03;25.08;;;22.48;;
57395;SDS011;43222;52.912;6.940;2022-07-21T11:52:32;25.52;;;22.92;;
57395;SDS011;43222;52.912;6.940;2022-07-21T11:54:58;23.02;;;20.67;;
57395;SDS011;43222;52.912;6.940;2022-07-21T11:57:25;23.77;;;21.27;;
57395;SDS011;43222;52.912;6.940;2022-07-21T11:59:52;23.40;;;20.98;;
57395;SDS011;43222;52.912;6.940;2022-07-21T12:02:19;24.17;;;21.55;;
57395;SDS011;43222;52.912;6.940;2022-07-21T12:04:47;23.90;;;21.42;;
57395;SDS011;43222;52.912;6.940;2022-07-21T12:09:52;19.35;;;15.52;;
57395;SDS011;43222;52.912;6.940;2022-07-21T12:12:38;12.88;;;11.40;;
57395;SDS011;43222;52.912;6.940;2022-07-21T12:17:38;11.15;;;9.13;;
57395;SDS011;43222;52.912;6.940;2022-07-21T12:20:05;11.95;;;10.43;;
57395;SDS011;43222;52.912;6.940;2022-07-21T12:22:32;13.85;;;11.75;;
57395;SDS011;43222;52.912;6.940;2022-07-21T12:24:58;14.13;;;11.40;;
57395;SDS011;43222;52.912;6.940;2022-07-21T12:27:24;19.08;;;17.13;;
57395;SDS011;43222;52.912;6.940;2022-07-21T12:29:50;19.08;;;16.67;;
57395;SDS011;43222;52.912;6.940;2022-07-21T12:32:37;20.65;;;18.00;;
57395;SDS011;43222;52.912;6.940;2022-07-21T12:35:02;21.40;;;19.20;;
57395;SDS011;43222;52.912;6.940;2022-07-21T12:40:14;25.17;;;22.67;;
57395;SDS011;43222;52.912;6.940;2022-07-21T12:42:40;30.35;;;27.38;;
57395;SDS011;43222;52.912;6.940;2022-07-21T12:45:12;31.60;;;28.50;;
57395;SDS011;43222;52.912;6.940;2022-07-21T12:47:38;33.47;;;30.10;;
57395;SDS011;43222;52.912;6.940;2022-07-21T12:50:06;31.17;;;28.27;;
57395;SDS011;43222;52.912;6.940;2022-07-21T12:52:32;32.45;;;29.40;;
57395;SDS011;43222;52.912;6.940;2022-07-21T12:54:59;33.33;;;30.23;;
57395;SDS011;43222;52.912;6.940;2022-07-21T12:57:29;33.97;;;30.63;;
57395;SDS011;43222;52.912;6.940;2022-07-21T12:59:58;34.58;;;30.90;;
57395;SDS011;43222;52.912;6.940;2022-07-21T13:02:25;32.80;;;29.50;;
57395;SDS011;43222;52.912;6.940;2022-07-21T13:04:54;32.58;;;29.33;;
57395;SDS011;43222;52.912;6.940;2022-07-21T13:07:20;32.63;;;29.50;;
57395;SDS011;43222;52.912;6.940;2022-07-21T13:09:46;29.33;;;26.45;;
57395;SDS011;43222;52.912;6.940;2022-07-21T13:12:12;30.42;;;27.35;;
57395;SDS011;43222;52.912;6.940;2022-07-21T13:14:39;28.83;;;26.02;;
57395;SDS011;43222;52.912;6.940;2022-07-21T13:17:05;23.02;;;20.73;;
57395;SDS011;43222;52.912;6.940;2022-07-21T13:19:31;15.70;;;14.20;;
57395;SDS011;43222;52.912;6.940;2022-07-21T13:21:57;10.73;;;9.35;;
57395;SDS011;43222;52.912;6.940;2022-07-21T13:24:25;11.80;;;9.15;;
57395;SDS011;43222;52.912;6.940;2022-07-21T13:27:12;10.88;;;8.00;;
57395;SDS011;43222;52.912;6.940;2022-07-21T13:29:48;7.53;;;6.05;;
57395;SDS011;43222;52.912;6.940;2022-07-21T13:32:45;7.00;;;5.35;;
57395;SDS011;43222;52.912;6.940;2022-07-21T13:35:31;7.28;;;6.10;;
57395;SDS011;43222;52.912;6.940;2022-07-21T13:38:17;7.45;;;5.50;;
57395;SDS011;43222;52.912;6.940;2022-07-21T13:41:00;7.60;;;6.43;;
57395;SDS011;43222;52.912;6.940;2022-07-21T13:46:32;7.97;;;6.38;;
57395;SDS011;43222;52.912;6.940;2022-07-21T13:48:59;9.88;;;8.32;;
57395;SDS011;43222;52.912;6.940;2022-07-21T13:51:28;10.50;;;8.57;;
57395;SDS011;43222;52.912;6.940;2022-07-21T13:54:17;9.60;;;8.60;;
57395;SDS011;43222;52.912;6.940;2022-07-21T13:56:46;10.70;;;9.50;;
57395;SDS011;43222;52.912;6.940;2022-07-21T13:59:22;9.45;;;8.38;;
57395;SDS011;43222;52.912;6.940;2022-07-21T14:01:48;9.82;;;8.75;;
57395;SDS011;43222;52.912;6.940;2022-07-21T14:04:14;11.55;;;9.25;;
57395;SDS011;43222;52.912;6.940;2022-07-21T14:06:40;9.88;;;8.30;;
57395;SDS011;43222;52.912;6.940;2022-07-21T14:09:11;9.25;;;7.95;;
57395;SDS011;43222;52.912;6.940;2022-07-21T14:11:55;10.63;;;8.85;;
57395;SDS011;43222;52.912;6.940;2022-07-21T14:14:22;10.32;;;8.35;;
57395;SDS011;43222;52.912;6.940;2022-07-21T14:16:51;9.30;;;8.02;;
57395;SDS011;43222;52.912;6.940;2022-07-21T14:19:18;10.57;;;8.13;;
57395;SDS011;43222;52.912;6.940;2022-07-21T14:21:44;9.52;;;7.20;;
57395;SDS011;43222;52.912;6.940;2022-07-21T14:24:10;8.38;;;7.18;;
57395;SDS011;43222;52.912;6.940;2022-07-21T14:26:55;8.50;;;7.60;;
57395;SDS011;43222;52.912;6.940;2022-07-21T14:29:21;9.93;;;7.97;;
57395;SDS011;43222;52.912;6.940;2022-07-21T14:31:47;8.07;;;6.45;;
57395;SDS011;43222;52.912;6.940;2022-07-21T14:34:14;7.60;;;5.65;;
57395;SDS011;43222;52.912;6.940;2022-07-21T14:36:40;7.10;;;5.40;;
57395;SDS011;43222;52.912;6.940;2022-07-21T14:39:06;8.07;;;4.95;;
57395;SDS011;43222;52.912;6.940;2022-07-21T14:41:33;6.22;;;4.88;;
57395;SDS011;43222;52.912;6.940;2022-07-21T14:43:59;7.15;;;4.60;;
57395;SDS011;43222;52.912;6.940;2022-07-21T14:46:25;7.07;;;5.35;;
57395;SDS011;43222;52.912;6.940;2022-07-21T14:48:52;6.90;;;5.40;;
57395;SDS011;43222;52.912;6.940;2022-07-21T14:51:18;7.03;;;5.00;;
57395;SDS011;43222;52.912;6.940;2022-07-21T14:53:44;6.15;;;4.70;;
57395;SDS011;43222;52.912;6.940;2022-07-21T14:56:10;6.35;;;4.75;;
57395;SDS011;43222;52.912;6.940;2022-07-21T14:58:36;5.97;;;4.45;;
57395;SDS011;43222;52.912;6.940;2022-07-21T15:01:02;6.88;;;4.15;;